Time;durP1;ratioP1;P1;durP2;ratioP2;P2;SDS_P1;SDS_P2;PMS_P1;PMS_P2;Temp;Humidity;BMP_temperature;BMP_pressure;BME280_temperature;BME280_humidity;BME280_pressure;Samples;Min_cycle;Max_cycle;Signal;HPM_P1;HPM_P2
2022/09/06 00:00:33;;;;;;;;;;;13.70;99.90;;;;;;5052317;28;20000;-73
2022/09/06 00:02:59;;;;;;;;;;;13.60;99.90;;;;;;5052097;28;19913;-74
2022/09/06 00:05:26;;;;;;;;;;;13.60;99.90;;;;;;5050606;28;20060;-74
2022/09/06 00:07:51;;;;;;;;;;;13.60;99.90;;;;;;5052064;28;19962;-75
2022/09/06 00:10:17;;;;;;;;;;;13.60;99.90;;;;;;5051835;28;19924;-75
2022/09/06 00:12:42;;;;;;;;;;;13.50;99.90;;;;;;5057410;28;19916;-75
2022/09/06 00:15:10;;;;;;;;;;;13.50;99.90;;;;;;5055200;28;21543;-75
2022/09/06 00:17:35;;;;;;;;;;;13.60;99.90;;;;;;5053117;28;19963;-75
2022/09/06 00:20:01;;;;;;;;;;;13.60;99.90;;;;;;5051836;28;19954;-75
2022/09/06 00:22:27;;;;;;;;;;;13.50;99.90;;;;;;5051737;28;19916;-74
2022/09/06 00:24:52;;;;;;;;;;;13.50;99.90;;;;;;5051724;28;19908;-75
2022/09/06 00:27:18;;;;;;;;;;;13.40;99.90;;;;;;5051982;28;19917;-75
2022/09/06 00:29:43;;;;;;;;;;;13.40;99.90;;;;;;5051732;28;20291;-75
2022/09/06 00:32:09;;;;;;;;;;;13.50;99.90;;;;;;5051555;28;19917;-75
2022/09/06 00:34:34;;;;;;;;;;;13.50;99.90;;;;;;5051524;28;19912;-74
2022/09/06 00:37:00;;;;;;;;;;;13.40;99.90;;;;;;5063010;28;19908;-75
2022/09/06 00:39:25;;;;;;;;;;;13.30;99.90;;;;;;5051794;28;19954;-75
2022/09/06 00:41:51;;;;;;;;;;;13.40;99.90;;;;;;5051515;28;20007;-74
2022/09/06 00:44:17;;;;;;;;;;;13.20;99.90;;;;;;5060219;28;19916;-75
2022/09/06 00:46:45;;;;;;;;;;;13.10;99.90;;;;;;5052774;28;19913;-74
2022/09/06 00:49:20;;;;;;;;;;;13.10;99.90;;;;;;5051617;28;19909;-75
2022/09/06 00:51:46;;;;;;;;;;;13.20;99.90;;;;;;5050107;28;19948;-75
2022/09/06 00:54:11;;;;;;;;;;;13.20;99.90;;;;;;5051352;28;19952;-75
2022/09/06 00:56:38;;;;;;;;;;;13.20;99.90;;;;;;5052009;28;19908;-74
2022/09/06 00:59:04;;;;;;;;;;;13.10;99.90;;;;;;5051328;28;19909;-75
2022/09/06 01:01:29;;;;;;;;;;;13.10;99.90;;;;;;5050123;28;20016;-75
2022/09/06 01:03:55;;;;;;;;;;;13.20;99.90;;;;;;5051062;28;19919;-75
2022/09/06 01:06:47;;;;;;;;;;;13.20;99.90;;;;;;5054642;28;20007;-75
2022/09/06 01:09:12;;;;;;;;;;;13.10;99.90;;;;;;5065140;28;19908;-75
2022/09/06 01:11:47;;;;;;;;;;;13.10;99.90;;;;;;5074007;28;19917;-75
2022/09/06 01:14:12;;;;;;;;;;;13.00;99.90;;;;;;5065877;28;19909;-75
2022/09/06 01:16:42;;;;;;;;;;;13.00;99.90;;;;;;5058730;28;20354;-75
2022/09/06 01:19:10;;;;;;;;;;;13.10;99.90;;;;;;5067616;28;19912;-75
2022/09/06 01:21:40;;;;;;;;;;;13.00;99.90;;;;;;5054896;28;19940;-74
2022/09/06 01:24:24;;;;;;;;;;;13.10;99.90;;;;;;5054642;28;19912;-75
2022/09/06 01:27:08;;;;;;;;;;;13.20;99.90;;;;;;5055063;28;20518;-74
2022/09/06 01:29:36;;;;;;;;;;;13.20;99.90;;;;;;5054835;28;19988;-74
2022/09/06 01:32:10;;;;;;;;;;;13.20;99.90;;;;;;5054656;28;19913;-73
2022/09/06 01:34:43;;;;;;;;;;;13.40;99.90;;;;;;5054110;28;19991;-74
2022/09/06 01:37:11;;;;;;;;;;;13.40;99.90;;;;;;5074011;28;20366;-74
2022/09/06 01:39:38;;;;;;;;;;;13.50;99.90;;;;;;5053631;28;19909;-74
2022/09/06 01:42:15;;;;;;;;;;;13.40;99.90;;;;;;5054541;28;19909;-74
2022/09/06 01:44:43;;;;;;;;;;;13.30;99.90;;;;;;5057852;28;19909;-75
2022/09/06 01:47:27;;;;;;;;;;;13.30;99.90;;;;;;5059362;28;19908;-75
2022/09/06 01:49:55;;;;;;;;;;;13.20;99.90;;;;;;5053158;28;20453;-74
2022/09/06 01:52:41;;;;;;;;;;;13.30;99.90;;;;;;5054347;28;20034;-74
2022/09/06 01:55:13;;;;;;;;;;;13.40;99.90;;;;;;5069739;28;19951;-74
2022/09/06 01:57:44;;;;;;;;;;;13.40;99.90;;;;;;5061543;28;19912;-74
2022/09/06 02:00:11;;;;;;;;;;;13.40;99.90;;;;;;5073471;28;19909;-74
2022/09/06 02:02:37;;;;;;;;;;;13.50;99.90;;;;;;5073475;28;20378;-74
2022/09/06 02:05:05;;;;;;;;;;;13.40;99.90;;;;;;5073518;28;19909;-74
2022/09/06 02:07:32;;;;;;;;;;;13.30;99.90;;;;;;5072182;28;19909;-75
2022/09/06 02:10:13;;;;;;;;;;;13.30;99.90;;;;;;5073121;28;19935;-74
2022/09/06 02:12:40;;;;;;;;;;;13.40;99.90;;;;;;5072945;28;20392;-75
2022/09/06 02:15:09;;;;;;;;;;;13.50;99.90;;;;;;5073417;28;20336;-74
2022/09/06 02:17:38;;;;;;;;;;;13.40;99.90;;;;;;5072517;28;19953;-74
2022/09/06 02:20:07;;;;;;;;;;;13.40;99.90;;;;;;5071775;28;19916;-75
2022/09/06 02:22:35;;;;;;;;;;;13.40;99.90;;;;;;5072872;28;19913;-75
2022/09/06 02:25:01;;;;;;;;;;;13.40;99.90;;;;;;5072152;28;19992;-73
2022/09/06 02:27:27;;;;;;;;;;;13.60;99.90;;;;;;5072336;28;19978;-74
2022/09/06 02:29:52;;;;;;;;;;;14.80;99.90;;;;;;5054063;28;20397;-75
2022/09/06 02:32:20;;;;;;;;;;;15.50;99.90;;;;;;5053560;28;20285;-74
2022/09/06 02:34:46;;;;;;;;;;;15.80;99.90;;;;;;5053237;28;19924;-75
2022/09/06 02:37:12;;;;;;;;;;;16.00;99.90;;;;;;5053520;28;19917;-74
2022/09/06 02:39:38;;;;;;;;;;;16.20;99.90;;;;;;5052295;28;19912;-75
2022/09/06 02:42:04;;;;;;;;;;;16.60;99.90;;;;;;5053389;28;19916;-74
2022/09/06 02:44:29;;;;;;;;;;;17.10;99.90;;;;;;5053250;28;19955;-74
2022/09/06 02:46:55;;;;;;;;;;;17.10;99.90;;;;;;5053393;28;20186;-75
2022/09/06 02:49:20;;;;;;;;;;;17.20;99.90;;;;;;5053300;28;19909;-74
2022/09/06 02:51:46;;;;;;;;;;;17.10;99.90;;;;;;5051783;28;19924;-74
2022/09/06 02:54:11;;;;;;;;;;;16.90;99.90;;;;;;5061994;28;20290;-74
2022/09/06 02:56:37;;;;;;;;;;;16.90;99.90;;;;;;5054094;28;19908;-74
2022/09/06 02:59:04;;;;;;;;;;;16.70;99.90;;;;;;5063477;28;20285;-75
2022/09/06 03:01:30;;;;;;;;;;;16.50;99.90;;;;;;5052880;28;19909;-74
2022/09/06 03:03:56;;;;;;;;;;;16.40;99.90;;;;;;5052819;28;19909;-74
2022/09/06 03:06:22;;;;;;;;;;;16.50;99.90;;;;;;5053047;28;19962;-74
2022/09/06 03:08:47;;;;;;;;;;;16.70;99.90;;;;;;5051839;28;19916;-74
2022/09/06 03:11:13;;;;;;;;;;;16.50;99.90;;;;;;5072243;28;19917;-75
2022/09/06 03:13:38;;;;;;;;;;;16.50;99.90;;;;;;5072049;28;19912;-75
2022/09/06 03:16:04;;;;;;;;;;;16.30;99.90;;;;;;5071343;28;20316;-75
2022/09/06 03:18:29;;;;;;;;;;;16.00;99.90;;;;;;5072006;28;19954;-75
2022/09/06 03:20:55;;;;;;;;;;;16.00;99.90;;;;;;5072087;28;19948;-75
2022/09/06 03:23:22;;;;;;;;;;;15.90;99.90;;;;;;5071995;28;19909;-74
2022/09/06 03:25:48;;;;;;;;;;;15.90;99.90;;;;;;5067261;28;19912;-75
2022/09/06 03:28:13;;;;;;;;;;;15.80;99.90;;;;;;5055048;28;19915;-75
2022/09/06 03:30:39;;;;;;;;;;;15.70;99.90;;;;;;5052637;28;19909;-75
2022/09/06 03:33:05;;;;;;;;;;;15.60;99.90;;;;;;5052235;28;19973;-75
2022/09/06 03:35:30;;;;;;;;;;;15.40;99.90;;;;;;5052585;28;19963;-75
2022/09/06 03:37:56;;;;;;;;;;;15.30;99.90;;;;;;5063201;28;20393;-75
2022/09/06 03:40:21;;;;;;;;;;;15.20;99.90;;;;;;5071351;28;20361;-75
2022/09/06 03:42:47;;;;;;;;;;;15.30;99.90;;;;;;5055415;28;19998;-74
2022/09/06 03:45:12;;;;;;;;;;;15.20;99.90;;;;;;5052298;28;19908;-75
2022/09/06 03:47:38;;;;;;;;;;;15.10;99.90;;;;;;5052275;28;20011;-75
2022/09/06 03:50:04;;;;;;;;;;;15.00;99.90;;;;;;5052549;28;20001;-74
2022/09/06 03:52:30;;;;;;;;;;;14.80;99.90;;;;;;5050698;28;19976;-75
2022/09/06 03:54:55;;;;;;;;;;;14.80;99.90;;;;;;5051839;28;20008;-75
2022/09/06 03:57:21;;;;;;;;;;;14.90;99.90;;;;;;5066558;28;19909;-74
2022/09/06 03:59:47;;;;;;;;;;;14.90;99.90;;;;;;5054465;28;19935;-75
2022/09/06 04:02:12;;;;;;;;;;;15.00;99.90;;;;;;5051807;28;20011;-75
2022/09/06 04:04:38;;;;;;;;;;;14.90;99.90;;;;;;5050432;28;20287;-74
2022/09/06 04:07:03;;;;;;;;;;;14.80;99.90;;;;;;5052023;28;19992;-74
2022/09/06 04:09:29;;;;;;;;;;;14.80;99.90;;;;;;5051728;28;20381;-74
2022/09/06 04:11:54;;;;;;;;;;;14.80;99.90;;;;;;5051658;28;19913;-74
2022/09/06 04:14:20;;;;;;;;;;;14.90;99.90;;;;;;5051719;28;19913;-74
2022/09/06 04:16:45;;;;;;;;;;;14.90;99.90;;;;;;5050496;28;19916;-74
2022/09/06 04:19:11;;;;;;;;;;;14.90;99.90;;;;;;5051672;28;19955;-74
2022/09/06 04:21:36;;;;;;;;;;;14.80;99.90;;;;;;5070885;28;19959;-74
2022/09/06 04:24:02;;;;;;;;;;;14.70;99.90;;;;;;5069414;28;19912;-73
2022/09/06 04:26:27;;;;;;;;;;;14.60;99.90;;;;;;5059391;28;19913;-74
2022/09/06 04:28:53;;;;;;;;;;;14.50;99.90;;;;;;5068722;28;20286;-74
2022/09/06 04:31:18;;;;;;;;;;;14.40;99.90;;;;;;5051398;28;20007;-74
2022/09/06 04:33:44;;;;;;;;;;;14.40;99.90;;;;;;5051199;28;19962;-74
2022/09/06 04:36:10;;;;;;;;;;;14.40;99.90;;;;;;5051510;28;19916;-74
2022/09/06 04:38:37;;;;;;;;;;;14.20;99.90;;;;;;5055540;28;19916;-74
2022/09/06 04:41:02;;;;;;;;;;;14.10;99.90;;;;;;5054262;28;20058;-73
2022/09/06 04:43:28;;;;;;;;;;;14.10;99.90;;;;;;5065834;28;20016;-74
2022/09/06 04:45:53;;;;;;;;;;;14.10;99.90;;;;;;5075465;28;20163;-74
2022/09/06 04:48:19;;;;;;;;;;;14.10;99.90;;;;;;5075740;28;19908;-74
2022/09/06 04:50:44;;;;;;;;;;;14.10;99.90;;;;;;5075435;28;19913;-74
2022/09/06 04:53:10;;;;;;;;;;;14.10;99.90;;;;;;5074927;28;20342;-75
2022/09/06 04:55:36;;;;;;;;;;;14.10;99.90;;;;;;5075853;28;20301;-74
2022/09/06 04:58:02;;;;;;;;;;;14.10;99.90;;;;;;5061444;28;20022;-74
2022/09/06 05:00:28;;;;;;;;;;;14.20;99.90;;;;;;5056397;28;19913;-74
2022/09/06 05:02:54;;;;;;;;;;;14.10;99.90;;;;;;5055750;28;19912;-74
2022/09/06 05:05:21;;;;;;;;;;;14.10;99.90;;;;;;5055907;28;19915;-74
2022/09/06 05:07:47;;;;;;;;;;;14.20;99.90;;;;;;5054708;28;20585;-75
2022/09/06 05:10:12;;;;;;;;;;;14.30;99.90;;;;;;5055839;28;19960;-75
2022/09/06 05:12:38;;;;;;;;;;;14.40;99.90;;;;;;5055895;28;19923;-74
2022/09/06 05:15:03;;;;;;;;;;;14.30;99.90;;;;;;5055634;28;19976;-74
2022/09/06 05:17:29;;;;;;;;;;;14.40;99.90;;;;;;5055779;28;19996;-74
2022/09/06 05:19:54;;;;;;;;;;;14.50;99.90;;;;;;5055912;28;19909;-75
2022/09/06 05:22:20;;;;;;;;;;;14.60;99.90;;;;;;5054815;28;19962;-75
2022/09/06 05:24:46;;;;;;;;;;;14.70;99.90;;;;;;5054951;28;19932;-75
2022/09/06 05:27:11;;;;;;;;;;;14.70;99.90;;;;;;5074118;28;19915;-73
2022/09/06 05:29:37;;;;;;;;;;;14.70;99.90;;;;;;5057227;28;19915;-73
2022/09/06 05:32:03;;;;;;;;;;;14.70;99.90;;;;;;5054585;28;19913;-74
2022/09/06 05:34:28;;;;;;;;;;;14.70;99.90;;;;;;5062329;28;19917;-73
2022/09/06 05:36:54;;;;;;;;;;;14.80;99.90;;;;;;5054805;28;20274;-72
2022/09/06 05:39:20;;;;;;;;;;;14.90;99.90;;;;;;5054393;28;19963;-74
2022/09/06 05:41:46;;;;;;;;;;;15.10;99.90;;;;;;5054209;28;19908;-73
2022/09/06 05:44:12;;;;;;;;;;;15.30;99.90;;;;;;5053997;28;19908;-73
2022/09/06 05:46:42;;;;;;;;;;;15.30;99.90;;;;;;5054182;28;19996;-73
2022/09/06 05:49:09;;;;;;;;;;;15.40;99.90;;;;;;5054303;28;20096;-73
2022/09/06 05:51:34;;;;;;;;;;;15.50;99.90;;;;;;5051406;28;19915;-74
2022/09/06 05:54:00;;;;;;;;;;;15.40;99.90;;;;;;5053913;28;20274;-73
2022/09/06 05:56:25;;;;;;;;;;;15.30;99.90;;;;;;5057620;28;20023;-73
2022/09/06 05:58:51;;;;;;;;;;;15.30;99.90;;;;;;5067589;28;20414;-74
2022/09/06 06:01:18;;;;;;;;;;;15.30;99.90;;;;;;5053911;28;19919;-74
2022/09/06 06:03:51;;;;;;;;;;;15.40;99.90;;;;;;5064627;28;19952;-74
2022/09/06 06:06:17;;;;;;;;;;;15.40;99.90;;;;;;5065487;28;20006;-74
2022/09/06 06:08:42;;;;;;;;;;;15.50;99.90;;;;;;5064518;28;20003;-74
2022/09/06 06:11:08;;;;;;;;;;;15.60;99.90;;;;;;5053405;28;19921;-75
2022/09/06 06:13:38;;;;;;;;;;;15.60;99.90;;;;;;5059061;28;19989;-75
2022/09/06 06:16:07;;;;;;;;;;;15.70;99.90;;;;;;5059853;28;20395;-74
2022/09/06 06:18:33;;;;;;;;;;;15.70;99.90;;;;;;5053422;28;20385;-74
2022/09/06 06:21:07;;;;;;;;;;;15.80;99.90;;;;;;5053480;28;20019;-74
2022/09/06 06:23:33;;;;;;;;;;;15.80;99.90;;;;;;5072514;28;19988;-74
2022/09/06 06:25:58;;;;;;;;;;;15.80;99.90;;;;;;5067967;28;20011;-73
2022/09/06 06:28:24;;;;;;;;;;;15.80;99.90;;;;;;5055145;28;20019;-74
2022/09/06 06:30:50;;;;;;;;;;;15.90;99.90;;;;;;5064146;28;19909;-75
2022/09/06 06:33:15;;;;;;;;;;;15.90;99.90;;;;;;5062825;28;19913;-74
2022/09/06 06:35:40;;;;;;;;;;;15.90;99.90;;;;;;5062497;28;19909;-75
2022/09/06 06:38:06;;;;;;;;;;;15.90;99.90;;;;;;5053183;28;19970;-74
2022/09/06 06:40:32;;;;;;;;;;;15.90;99.90;;;;;;5050655;28;19909;-75
2022/09/06 06:42:57;;;;;;;;;;;16.10;99.90;;;;;;5052886;28;19909;-75
2022/09/06 06:45:23;;;;;;;;;;;16.20;99.90;;;;;;5052805;28;19915;-74
2022/09/06 06:47:49;;;;;;;;;;;16.30;99.90;;;;;;5053328;28;19916;-75
2022/09/06 06:50:15;;;;;;;;;;;16.60;99.90;;;;;;5069433;28;20373;-75
2022/09/06 06:52:40;;;;;;;;;;;16.80;99.90;;;;;;5071814;28;19924;-75
2022/09/06 06:55:06;;;;;;;;;;;16.90;99.90;;;;;;5067211;28;19909;-74
2022/09/06 06:57:32;;;;;;;;;;;17.10;99.90;;;;;;5060999;28;19909;-74
2022/09/06 06:59:57;;;;;;;;;;;17.30;99.90;;;;;;5055345;28;19982;-75
2022/09/06 07:02:23;;;;;;;;;;;17.40;99.90;;;;;;5054409;28;20189;-75
2022/09/06 07:04:48;;;;;;;;;;;17.50;99.90;;;;;;5055602;28;19916;-74
2022/09/06 07:07:15;;;;;;;;;;;17.70;99.90;;;;;;5052421;28;19909;-75
2022/09/06 07:09:40;;;;;;;;;;;17.70;99.90;;;;;;5051986;28;19932;-75
2022/09/06 07:12:06;;;;;;;;;;;17.90;99.90;;;;;;5052228;28;20366;-74
2022/09/06 07:14:31;;;;;;;;;;;18.00;99.90;;;;;;5052273;28;19954;-75
2022/09/06 07:16:58;;;;;;;;;;;18.20;99.90;;;;;;5052424;28;19944;-75
2022/09/06 07:19:24;;;;;;;;;;;18.40;99.90;;;;;;5052718;28;19909;-75
2022/09/06 07:21:49;;;;;;;;;;;18.50;99.90;;;;;;5050704;28;19915;-75
2022/09/06 07:24:14;;;;;;;;;;;18.60;99.90;;;;;;5051975;28;20007;-75
2022/09/06 07:26:40;;;;;;;;;;;18.60;99.90;;;;;;5056391;28;19916;-75
2022/09/06 07:29:06;;;;;;;;;;;18.70;99.90;;;;;;5061353;28;19947;-77
2022/09/06 07:31:32;;;;;;;;;;;18.90;99.90;;;;;;5051874;28;19909;-75
2022/09/06 07:33:58;;;;;;;;;;;19.30;99.90;;;;;;5064239;28;19927;-75
2022/09/06 07:36:23;;;;;;;;;;;20.40;99.90;;;;;;5055608;28;19915;-75
2022/09/06 07:38:49;;;;;;;;;;;20.80;99.90;;;;;;5051820;28;19909;-75
2022/09/06 07:41:16;;;;;;;;;;;22.30;99.90;;;;;;5050433;28;19920;-75
2022/09/06 07:43:41;;;;;;;;;;;24.00;99.90;;;;;;5051582;28;19909;-75
2022/09/06 07:46:08;;;;;;;;;;;24.90;99.90;;;;;;5052474;28;19991;-75
2022/09/06 07:48:35;;;;;;;;;;;25.20;99.90;;;;;;5051933;28;19916;-76
2022/09/06 07:51:03;;;;;;;;;;;24.10;99.90;;;;;;5051538;28;20377;-75
2022/09/06 07:53:28;;;;;;;;;;;23.60;99.90;;;;;;5051083;28;19917;-74
2022/09/06 07:55:54;;;;;;;;;;;23.40;99.90;;;;;;5061096;28;19939;-75
2022/09/06 07:58:20;;;;;;;;;;;24.20;99.90;;;;;;5054491;28;20362;-75
2022/09/06 08:00:45;;;;;;;;;;;24.50;98.30;;;;;;5067022;28;19915;-75
2022/09/06 08:03:11;;;;;;;;;;;24.80;97.60;;;;;;5060197;28;19909;-75
2022/09/06 08:05:36;;;;;;;;;;;24.20;98.80;;;;;;5053694;28;20352;-75
2022/09/06 08:08:02;;;;;;;;;;;24.70;97.90;;;;;;5051543;28;20054;-74
2022/09/06 08:10:27;;;;;;;;;;;24.70;97.20;;;;;;5051207;28;19974;-75
2022/09/06 08:12:54;;;;;;;;;;;24.50;98.60;;;;;;5051259;28;19913;-75
2022/09/06 08:15:19;;;;;;;;;;;25.00;96.90;;;;;;5050955;28;19912;-74
2022/09/06 08:17:49;;;;;;;;;;;25.30;95.00;;;;;;5051753;28;19908;-76
2022/09/06 08:20:14;;;;;;;;;;;26.10;94.80;;;;;;5052036;28;19915;-75
2022/09/06 08:22:40;;;;;;;;;;;26.30;93.20;;;;;;5049675;28;19909;-75
2022/09/06 08:25:06;;;;;;;;;;;25.80;93.80;;;;;;5056155;28;19920;-75
2022/09/06 08:27:32;;;;;;;;;;;26.80;92.40;;;;;;5064901;28;19909;-75
2022/09/06 08:29:57;;;;;;;;;;;27.40;89.10;;;;;;5057114;28;20245;-74
2022/09/06 08:32:23;;;;;;;;;;;27.80;87.70;;;;;;5064810;28;19917;-75
2022/09/06 08:34:48;;;;;;;;;;;28.00;85.30;;;;;;5051229;28;19948;-76
2022/09/06 08:37:14;;;;;;;;;;;28.60;85.30;;;;;;5051162;28;19995;-76
2022/09/06 08:39:39;;;;;;;;;;;28.50;80.30;;;;;;5050180;28;19912;-75
2022/09/06 08:42:06;;;;;;;;;;;27.90;81.10;;;;;;5050978;28;19908;-75
2022/09/06 08:44:37;;;;;;;;;;;28.00;82.70;;;;;;5051211;28;19909;-75
2022/09/06 08:47:06;;;;;;;;;;;27.30;83.60;;;;;;5051324;28;20328;-74
2022/09/06 08:49:43;;;;;;;;;;;27.60;86.00;;;;;;5051295;28;19913;-76
2022/09/06 08:52:24;;;;;;;;;;;28.30;82.90;;;;;;5051259;28;19978;-75
2022/09/06 08:54:59;;;;;;;;;;;29.00;79.80;;;;;;5052638;28;19912;-75
2022/09/06 08:57:43;;;;;;;;;;;30.50;77.80;;;;;;5060267;28;19916;-75
2022/09/06 09:00:10;;;;;;;;;;;30.70;73.90;;;;;;5058961;28;19913;-73
2022/09/06 09:02:47;;;;;;;;;;;30.50;75.50;;;;;;5050677;28;19999;-75
2022/09/06 09:05:22;;;;;;;;;;;31.20;74.20;;;;;;5050824;28;19916;-75
2022/09/06 09:07:59;;;;;;;;;;;31.20;71.70;;;;;;5051068;28;19909;-75
2022/09/06 09:10:29;;;;;;;;;;;31.20;74.20;;;;;;5062942;28;19916;-75
2022/09/06 09:12:55;;;;;;;;;;;30.90;75.30;;;;;;5060623;28;20270;-75
2022/09/06 09:15:21;;;;;;;;;;;30.50;73.80;;;;;;5050662;28;19908;-75
2022/09/06 09:17:48;;;;;;;;;;;28.70;77.30;;;;;;5050806;28;19909;-75
2022/09/06 09:20:13;;;;;;;;;;;28.20;85.40;;;;;;5050602;28;19908;-75
2022/09/06 09:22:39;;;;;;;;;;;28.60;84.30;;;;;;5067414;28;19913;-74
2022/09/06 09:25:06;;;;;;;;;;;28.60;81.90;;;;;;5068357;28;19979;-75
2022/09/06 09:27:32;;;;;;;;;;;28.10;82.30;;;;;;5061035;28;19912;-75
2022/09/06 09:30:03;;;;;;;;;;;28.40;83.50;;;;;;5065814;28;20392;-75
2022/09/06 09:32:30;;;;;;;;;;;28.10;85.10;;;;;;5058569;28;19916;-76
2022/09/06 09:35:14;;;;;;;;;;;28.70;82.40;;;;;;5054075;28;20293;-75
2022/09/06 09:37:39;;;;;;;;;;;30.70;76.70;;;;;;5067712;28;20392;-75
2022/09/06 09:40:05;;;;;;;;;;;30.40;75.20;;;;;;5073295;28;19908;-76
2022/09/06 09:42:35;;;;;;;;;;;31.20;74.10;;;;;;5072899;28;19934;-75
2022/09/06 09:45:01;;;;;;;;;;;31.90;69.80;;;;;;5073027;28;19908;-75
2022/09/06 09:47:28;;;;;;;;;;;29.60;76.50;;;;;;5073040;28;19912;-75
2022/09/06 09:49:54;;;;;;;;;;;30.20;75.40;;;;;;5071967;28;19915;-75
2022/09/06 09:52:24;;;;;;;;;;;30.50;74.80;;;;;;5071072;28;20125;-75
2022/09/06 09:54:54;;;;;;;;;;;31.70;69.50;;;;;;5071093;28;20378;-76
2022/09/06 09:57:21;;;;;;;;;;;32.40;69.40;;;;;;5060994;28;19908;-75
2022/09/06 09:59:53;;;;;;;;;;;31.30;72.30;;;;;;5063665;28;19948;-75
2022/09/06 10:02:37;;;;;;;;;;;31.30;71.20;;;;;;5067880;28;20353;-75
2022/09/06 10:05:03;;;;;;;;;;;31.80;71.60;;;;;;5056915;28;19938;-75
2022/09/06 10:07:30;;;;;;;;;;;32.80;69.50;;;;;;5064125;28;19913;-76
2022/09/06 10:10:00;;;;;;;;;;;33.50;66.90;;;;;;5052492;28;19952;-75
2022/09/06 10:12:28;;;;;;;;;;;31.40;70.60;;;;;;5058206;28;20004;-76
2022/09/06 10:14:54;;;;;;;;;;;31.20;72.20;;;;;;5053386;28;19915;-76
2022/09/06 10:17:26;;;;;;;;;;;32.40;69.70;;;;;;5053179;28;19909;-76
2022/09/06 10:19:52;;;;;;;;;;;33.80;65.80;;;;;;5056733;28;19962;-75
2022/09/06 10:22:24;;;;;;;;;;;32.90;64.90;;;;;;5057351;28;19913;-75
2022/09/06 10:24:56;;;;;;;;;;;31.40;71.00;;;;;;5063274;28;19915;-75
2022/09/06 10:27:25;;;;;;;;;;;30.00;74.00;;;;;;5059409;28;19993;-75
2022/09/06 10:29:57;;;;;;;;;;;30.80;74.90;;;;;;5067075;28;19919;-75
2022/09/06 10:32:43;;;;;;;;;;;30.60;74.80;;;;;;5059551;28;20506;-75
2022/09/06 10:35:09;;;;;;;;;;;29.90;76.00;;;;;;5052991;28;20353;-74
2022/09/06 10:37:42;;;;;;;;;;;29.60;77.80;;;;;;5051428;28;19974;-75
2022/09/06 10:40:09;;;;;;;;;;;29.20;80.70;;;;;;5052987;28;19956;-75
2022/09/06 10:42:34;;;;;;;;;;;28.70;80.60;;;;;;5051667;28;19944;-75
2022/09/06 10:45:00;;;;;;;;;;;28.50;79.20;;;;;;5052983;28;19956;-75
2022/09/06 10:47:30;;;;;;;;;;;28.30;84.00;;;;;;5053256;28;19919;-75
2022/09/06 10:49:57;;;;;;;;;;;28.50;84.10;;;;;;5053291;28;19913;-75
2022/09/06 10:52:30;;;;;;;;;;;28.40;84.10;;;;;;5052840;28;20011;-76
2022/09/06 10:55:01;;;;;;;;;;;28.60;83.90;;;;;;5052680;28;19913;-75
2022/09/06 10:57:29;;;;;;;;;;;28.60;84.60;;;;;;5066071;28;19909;-76
2022/09/06 10:59:58;;;;;;;;;;;28.80;83.80;;;;;;5067706;28;19917;-75
2022/09/06 11:02:36;;;;;;;;;;;28.60;83.50;;;;;;5060867;28;20386;-75
2022/09/06 11:05:05;;;;;;;;;;;28.60;83.60;;;;;;5052573;28;19913;-75
2022/09/06 11:07:35;;;;;;;;;;;27.90;83.40;;;;;;5052619;28;19920;-75
2022/09/06 11:10:11;;;;;;;;;;;27.70;84.80;;;;;;5065259;28;19919;-75
2022/09/06 11:12:37;;;;;;;;;;;27.20;86.10;;;;;;5071536;28;19912;-75
2022/09/06 11:15:04;;;;;;;;;;;27.50;88.60;;;;;;5071612;28;19908;-75
2022/09/06 11:17:33;;;;;;;;;;;27.60;87.80;;;;;;5071699;28;20413;-75
2022/09/06 11:20:05;;;;;;;;;;;27.20;87.70;;;;;;5071673;28;19935;-76
2022/09/06 11:22:41;;;;;;;;;;;26.80;87.60;;;;;;5068356;28;19999;-75
2022/09/06 11:25:22;;;;;;;;;;;26.60;88.90;;;;;;5058380;28;19913;-76
2022/09/06 11:27:52;;;;;;;;;;;26.30;91.10;;;;;;5067602;28;20387;-76
2022/09/06 11:30:18;;;;;;;;;;;26.30;91.10;;;;;;5058140;28;19909;-76
2022/09/06 11:32:47;;;;;;;;;;;26.50;91.20;;;;;;5051747;28;20259;-76
2022/09/06 11:35:31;;;;;;;;;;;26.90;90.70;;;;;;5052164;28;19908;-76
2022/09/06 11:38:01;;;;;;;;;;;27.10;90.30;;;;;;5065701;28;19959;-76
2022/09/06 11:40:28;;;;;;;;;;;27.00;90.80;;;;;;5070959;28;19908;-76
2022/09/06 11:42:53;;;;;;;;;;;27.00;90.80;;;;;;5070764;28;19969;-76
2022/09/06 11:45:37;;;;;;;;;;;27.60;90.30;;;;;;5070763;28;19908;-76
2022/09/06 11:48:21;;;;;;;;;;;27.90;88.90;;;;;;5071071;28;19909;-76
2022/09/06 11:50:53;;;;;;;;;;;28.70;84.30;;;;;;5069903;28;19912;-74
2022/09/06 11:53:19;;;;;;;;;;;28.40;84.90;;;;;;5069582;28;19979;-75
2022/09/06 11:55:47;;;;;;;;;;;30.10;78.10;;;;;;5060611;28;19909;-75
2022/09/06 11:58:15;;;;;;;;;;;30.80;76.80;;;;;;5053385;28;19916;-75
2022/09/06 12:00:41;;;;;;;;;;;32.30;71.00;;;;;;5063929;28;20404;-75
2022/09/06 12:03:29;;;;;;;;;;;32.70;69.00;;;;;;5068758;28;19909;-75
2022/09/06 12:06:13;;;;;;;;;;;33.00;66.40;;;;;;5054927;28;20358;-75
2022/09/06 12:08:39;;;;;;;;;;;31.40;68.80;;;;;;5051790;28;19996;-75
2022/09/06 12:11:20;;;;;;;;;;;29.50;75.10;;;;;;5051358;28;20012;-75
2022/09/06 12:13:45;;;;;;;;;;;28.40;78.90;;;;;;5051094;28;19936;-75
2022/09/06 12:16:11;;;;;;;;;;;28.30;80.40;;;;;;5051144;28;20384;-75
2022/09/06 12:18:37;;;;;;;;;;;28.50;79.20;;;;;;5051367;28;19909;-75
2022/09/06 12:21:02;;;;;;;;;;;28.30;78.10;;;;;;5069536;28;19908;-75
2022/09/06 12:23:34;;;;;;;;;;;28.20;78.50;;;;;;5059832;28;20009;-75
2022/09/06 12:26:03;;;;;;;;;;;28.00;78.00;;;;;;5060126;28;20380;-75
2022/09/06 12:28:33;;;;;;;;;;;27.50;80.50;;;;;;5055390;28;19962;-75
2022/09/06 12:30:59;;;;;;;;;;;27.70;80.70;;;;;;5064168;28;20050;-75
2022/09/06 12:33:28;;;;;;;;;;;27.80;79.10;;;;;;5050875;28;20429;-75
2022/09/06 12:36:11;;;;;;;;;;;27.60;77.80;;;;;;5051228;28;19916;-75
2022/09/06 12:38:36;;;;;;;;;;;27.60;77.70;;;;;;5065787;28;19916;-75
2022/09/06 12:41:03;;;;;;;;;;;27.70;82.60;;;;;;5070516;28;19908;-75
2022/09/06 12:43:29;;;;;;;;;;;27.80;76.80;;;;;;5070098;28;19908;-75
2022/09/06 12:45:55;;;;;;;;;;;27.70;78.40;;;;;;5066715;28;19983;-74
2022/09/06 12:48:25;;;;;;;;;;;28.00;78.90;;;;;;5051286;28;20467;-74
2022/09/06 12:51:01;;;;;;;;;;;27.80;83.80;;;;;;5051103;28;20293;-74
2022/09/06 12:53:27;;;;;;;;;;;27.60;82.90;;;;;;5050404;28;19948;-74
2022/09/06 12:56:06;;;;;;;;;;;27.70;82.40;;;;;;5056663;28;20005;-75
2022/09/06 12:58:31;;;;;;;;;;;27.70;84.80;;;;;;5071474;28;19962;-75
2022/09/06 13:01:02;;;;;;;;;;;27.80;84.90;;;;;;5051901;28;19999;-75
2022/09/06 13:03:30;;;;;;;;;;;27.60;82.10;;;;;;5055043;28;20101;-75
2022/09/06 13:05:56;;;;;;;;;;;27.60;83.10;;;;;;5054830;28;19931;-75
2022/09/06 13:08:37;;;;;;;;;;;28.00;80.50;;;;;;5054778;28;19912;-75
2022/09/06 13:11:03;;;;;;;;;;;28.10;83.10;;;;;;5062179;28;20009;-75
2022/09/06 13:13:29;;;;;;;;;;;28.00;83.90;;;;;;5053533;28;19917;-75
2022/09/06 13:15:55;;;;;;;;;;;27.90;75.70;;;;;;5054315;28;19996;-75
2022/09/06 13:18:25;;;;;;;;;;;27.60;78.60;;;;;;5050018;28;20007;-75
2022/09/06 13:21:00;;;;;;;;;;;27.40;72.60;;;;;;5054703;28;19912;-75
2022/09/06 13:23:26;;;;;;;;;;;27.40;77.90;;;;;;5067939;28;20012;-75
2022/09/06 13:25:53;;;;;;;;;;;27.70;73.60;;;;;;5068618;28;19908;-74
2022/09/06 13:28:37;;;;;;;;;;;27.50;71.80;;;;;;5066323;28;19912;-75
2022/09/06 13:31:04;;;;;;;;;;;27.50;74.20;;;;;;5053539;28;19958;-74
2022/09/06 13:33:29;;;;;;;;;;;27.80;77.20;;;;;;5056739;28;20358;-74
2022/09/06 13:36:07;;;;;;;;;;;28.20;75.50;;;;;;5059007;28;19963;-74
2022/09/06 13:38:32;;;;;;;;;;;28.10;76.50;;;;;;5054176;28;19916;-74
2022/09/06 13:40:58;;;;;;;;;;;27.90;76.90;;;;;;5054312;28;19913;-74
2022/09/06 13:43:24;;;;;;;;;;;27.70;79.10;;;;;;5053616;28;19966;-74
2022/09/06 13:46:06;;;;;;;;;;;27.30;81.10;;;;;;5054313;28;19916;-74
2022/09/06 13:48:32;;;;;;;;;;;27.40;82.40;;;;;;5054167;28;19999;-74
2022/09/06 13:50:58;;;;;;;;;;;26.90;82.00;;;;;;5066504;28;19962;-74
2022/09/06 13:53:24;;;;;;;;;;;26.70;86.90;;;;;;5061532;28;19960;-74
2022/09/06 13:55:51;;;;;;;;;;;26.80;84.70;;;;;;5059755;28;19948;-74
2022/09/06 13:58:16;;;;;;;;;;;26.90;85.20;;;;;;5063413;28;19974;-74
2022/09/06 14:00:42;;;;;;;;;;;26.80;86.30;;;;;;5053635;28;20324;-74
2022/09/06 14:03:10;;;;;;;;;;;27.20;86.10;;;;;;5058955;28;19908;-74
2022/09/06 14:05:37;;;;;;;;;;;27.60;83.50;;;;;;5064245;28;19995;-74
2022/09/06 14:08:03;;;;;;;;;;;27.60;79.80;;;;;;5054156;28;20385;-74
2022/09/06 14:10:28;;;;;;;;;;;27.80;79.60;;;;;;5056166;28;19960;-74
2022/09/06 14:12:54;;;;;;;;;;;27.60;78.10;;;;;;5055654;28;20055;-74
2022/09/06 14:15:20;;;;;;;;;;;27.20;82.20;;;;;;5059205;28;20405;-74
2022/09/06 14:17:45;;;;;;;;;;;27.10;82.10;;;;;;5053653;28;19916;-74
2022/09/06 14:20:11;;;;;;;;;;;27.00;81.70;;;;;;5053833;28;19909;-74